Time;durP1;ratioP1;P1;durP2;ratioP2;P2;SDS_P1;SDS_P2;PMS_P1;PMS_P2;Temp;Humidity;BMP_temperature;BMP_pressure;BME280_temperature;BME280_humidity;BME280_pressure;Samples;Min_cycle;Max_cycle;Signal;HPM_P1;HPM_P2
2022/03/18 00:00:16;;;;;;;17.73;8.47;;;;;;;4.22;66.37;103757.72;5228995;28;20369;-75
2022/03/18 00:02:49;;;;;;;14.57;8.10;;;;;;;4.28;66.41;103756.91;5228595;28;20026;-75
2022/03/18 00:05:22;;;;;;;21.43;8.30;;;;;;;4.23;67.40;103762.94;5227985;28;20045;-75
2022/03/18 00:07:53;;;;;;;18.27;7.70;;;;;;;4.24;66.91;103763.81;5226597;28;20634;-75
2022/03/18 00:10:24;;;;;;;13.27;7.70;;;;;;;4.15;66.85;103759.38;5229323;28;20060;-74
2022/03/18 00:12:56;;;;;;;15.83;8.13;;;;;;;4.09;66.91;103778.28;5228875;28;20408;-74
2022/03/18 00:15:28;;;;;;;16.73;8.23;;;;;;;4.13;67.32;103771.44;5226660;28;20473;-75
2022/03/18 00:17:59;;;;;;;18.63;8.70;;;;;;;4.16;67.78;103768.00;5228434;28;20033;-75
2022/03/18 00:20:30;;;;;;;18.30;8.20;;;;;;;4.01;68.24;103779.91;5228671;28;20021;-75
2022/03/18 00:23:01;;;;;;;20.33;10.50;;;;;;;4.01;68.19;103784.22;5210471;28;20059;-75
2022/03/18 00:25:33;;;;;;;16.07;9.20;;;;;;;3.95;68.08;103775.47;5229162;28;20029;-75
2022/03/18 00:28:04;;;;;;;14.53;8.80;;;;;;;4.11;68.03;103779.19;5228604;28;20029;-75
2022/03/18 00:30:35;;;;;;;19.73;8.77;;;;;;;4.03;68.67;103780.81;5229161;28;20029;-75
2022/03/18 00:33:06;;;;;;;16.30;9.07;;;;;;;3.86;68.55;103741.63;5228157;28;20025;-75
2022/03/18 00:35:38;;;;;;;15.07;8.40;;;;;;;4.01;67.89;103761.75;5211446;28;20118;-75
2022/03/18 00:38:09;;;;;;;13.53;7.67;;;;;;;3.90;68.78;103784.91;5228497;28;20026;-75
2022/03/18 00:40:41;;;;;;;17.53;8.40;;;;;;;3.85;68.71;103779.66;5229234;28;20061;-74
2022/03/18 00:43:13;;;;;;;18.37;10.23;;;;;;;3.85;69.07;103779.66;5228623;28;20044;-74
2022/03/18 00:45:45;;;;;;;21.03;9.93;;;;;;;3.68;69.05;103771.59;5228623;28;20030;-75
2022/03/18 00:53:57;;;;;;;15.50;8.77;;;;;;;3.71;68.25;103791.50;5229015;28;20029;-75
2022/03/18 00:56:28;;;;;;;17.10;8.20;;;;;;;3.53;68.67;103776.50;5228187;28;20632;-75
2022/03/18 00:58:59;;;;;;;14.07;9.13;;;;;;;3.60;68.85;103799.09;5228884;28;20037;-75
2022/03/18 01:01:32;;;;;;;17.17;9.97;;;;;;;3.51;69.36;103794.63;5226694;28;20060;-74
2022/03/18 01:04:04;;;;;;;18.80;8.70;;;;;;;3.38;69.23;103796.13;5228351;28;20520;-74
2022/03/18 01:06:36;;;;;;;16.43;8.90;;;;;;;3.48;69.45;103800.63;5230396;28;20025;-74
2022/03/18 01:09:07;;;;;;;19.13;9.43;;;;;;;3.52;69.06;103804.16;5230368;28;20099;-75
2022/03/18 01:11:38;;;;;;;17.60;9.53;;;;;;;3.48;69.43;103811.00;5231732;28;20030;-75
2022/03/18 01:14:10;;;;;;;16.43;8.77;;;;;;;3.46;69.61;103811.81;5229047;28;20481;-75
2022/03/18 01:16:41;;;;;;;19.57;10.37;;;;;;;3.21;70.28;103811.34;5231411;28;20029;-75
2022/03/18 01:19:12;;;;;;;21.23;10.00;;;;;;;3.42;69.98;103815.19;5231094;28;20116;-74
2022/03/18 01:21:44;;;;;;;21.10;10.87;;;;;;;3.25;70.20;103813.16;5231485;28;20033;-75
2022/03/18 01:24:15;;;;;;;19.33;10.10;;;;;;;3.25;70.72;103816.63;5231636;28;20091;-74
2022/03/18 01:26:46;;;;;;;16.67;9.57;;;;;;;3.38;70.30;103815.16;5231263;28;20287;-74
2022/03/18 01:29:18;;;;;;;15.23;9.20;;;;;;;3.29;69.97;103799.41;5230265;28;20041;-75
2022/03/18 01:31:49;;;;;;;17.17;9.60;;;;;;;3.15;70.24;103806.94;5231571;28;20440;-74
2022/03/18 01:34:20;;;;;;;18.17;9.27;;;;;;;3.05;70.64;103794.63;5231451;28;20487;-75
2022/03/18 01:36:52;;;;;;;18.60;8.77;;;;;;;3.19;70.39;103800.97;5231118;28;20465;-75
2022/03/18 01:39:23;;;;;;;18.33;9.43;;;;;;;3.12;70.34;103812.06;5231183;28;20029;-74
2022/03/18 01:41:54;;;;;;;16.87;8.30;;;;;;;3.16;70.40;103813.00;5230518;28;20025;-74
2022/03/18 01:44:26;;;;;;;20.17;9.10;;;;;;;2.97;70.59;103807.41;5229318;28;20030;-74
2022/03/18 01:46:57;;;;;;;17.73;8.07;;;;;;;3.01;70.44;103806.66;5231651;28;20026;-77
2022/03/18 01:49:28;;;;;;;16.60;8.93;;;;;;;3.05;69.96;103805.88;5232294;28;20025;-75
2022/03/18 01:52:00;;;;;;;19.00;9.27;;;;;;;3.09;70.32;103820.63;5230121;28;20026;-75
2022/03/18 01:54:44;;;;;;;22.67;9.77;;;;;;;2.76;70.99;103808.72;5231322;28;20022;-75
2022/03/18 01:57:22;;;;;;;21.77;7.93;;;;;;;3.09;70.42;103823.22;5230661;28;20021;-74
2022/03/18 01:59:54;;;;;;;15.40;8.00;;;;;;;2.97;70.65;103810.88;5230202;28;20287;-74
2022/03/18 02:02:26;;;;;;;16.83;7.50;;;;;;;2.87;71.26;103817.59;5229257;28;20030;-75
2022/03/18 02:04:58;;;;;;;17.20;7.67;;;;;;;2.83;71.02;103815.78;5229458;28;20041;-75
2022/03/18 02:07:29;;;;;;;15.60;8.50;;;;;;;2.78;70.78;103818.28;5229479;28;20614;-75
2022/03/18 02:10:01;;;;;;;13.27;7.23;;;;;;;2.79;70.79;103795.88;5228785;28;20021;-74
2022/03/18 02:12:32;;;;;;;11.63;6.90;;;;;;;2.95;69.63;103814.31;5230558;28;20017;-75
2022/03/18 02:15:04;;;;;;;15.00;8.53;;;;;;;2.98;70.16;103825.59;5230607;28;20026;-75
2022/03/18 02:17:37;;;;;;;18.80;8.70;;;;;;;2.85;69.73;103832.22;5228515;28;20078;-74
2022/03/18 02:20:08;;;;;;;14.93;7.40;;;;;;;2.93;69.44;103834.09;5230434;28;20025;-74
2022/03/18 02:22:41;;;;;;;16.97;6.70;;;;;;;2.70;69.96;103835.38;5212327;28;20026;-75
2022/03/18 02:25:12;;;;;;;12.73;7.33;;;;;;;2.64;71.61;103841.28;5229220;28;20634;-75
2022/03/18 02:27:55;;;;;;;15.60;7.83;;;;;;;2.68;71.75;103826.69;5230418;28;20120;-75
2022/03/18 02:30:31;;;;;;;18.10;8.40;;;;;;;2.52;72.59;103833.22;5230371;28;20025;-75
2022/03/18 02:33:03;;;;;;;14.00;8.23;;;;;;;2.50;72.27;103840.06;5230305;28;20032;-75
2022/03/18 02:35:36;;;;;;;16.93;7.03;;;;;;;2.61;71.92;103835.16;5230785;28;20026;-75
2022/03/18 02:38:07;;;;;;;14.90;6.83;;;;;;;2.50;71.97;103821.97;5211196;28;20021;-75
2022/03/18 02:40:39;;;;;;;12.83;7.33;;;;;;;2.36;72.04;103827.69;5231032;28;20491;-75
2022/03/18 02:43:10;;;;;;;16.20;8.30;;;;;;;2.58;72.27;103843.72;5230074;28;20025;-75
2022/03/18 02:45:41;;;;;;;16.40;8.20;;;;;;;2.39;72.33;103845.88;5230166;28;20021;-75
2022/03/18 02:48:13;;;;;;;20.93;9.27;;;;;;;2.41;72.27;103851.97;5230191;28;20037;-75
2022/03/18 02:50:44;;;;;;;19.27;6.90;;;;;;;2.33;72.45;103837.97;5212287;28;20032;-75
2022/03/18 02:53:15;;;;;;;16.03;8.57;;;;;;;2.50;71.77;103843.53;5229254;28;20483;-75
2022/03/18 02:55:46;;;;;;;17.07;7.77;;;;;;;2.56;71.24;103835.06;5230634;28;20282;-75
2022/03/18 02:58:18;;;;;;;21.20;8.43;;;;;;;2.34;71.80;103839.72;5211436;28;20025;-75
2022/03/18 03:00:49;;;;;;;16.07;8.60;;;;;;;2.40;72.17;103849.34;5230420;28;20033;-74
2022/03/18 03:03:21;;;;;;;18.10;8.33;;;;;;;2.18;72.60;103847.13;5229402;28;20022;-75
2022/03/18 03:08:42;;;;;;;15.23;7.63;;;;;;;2.27;72.04;103861.97;5229489;28;20045;-75
2022/03/18 03:11:13;;;;;;;15.17;8.20;;;;;;;2.20;72.72;103869.56;5229650;28;20018;-75
2022/03/18 03:13:44;;;;;;;12.53;7.30;;;;;;;2.21;72.69;103871.31;5210923;28;20072;-75
2022/03/18 03:16:16;;;;;;;15.33;6.47;;;;;;;2.25;72.99;103873.13;5228628;28;20431;-75
2022/03/18 03:18:48;;;;;;;13.83;7.10;;;;;;;2.22;72.17;103875.63;5229468;28;20480;-75
2022/03/18 03:21:19;;;;;;;14.97;7.80;;;;;;;2.35;71.09;103869.06;5228038;28;20021;-75
2022/03/18 03:23:50;;;;;;;13.40;7.00;;;;;;;2.17;71.79;103870.34;5230191;28;20542;-75
2022/03/18 03:26:22;;;;;;;14.07;7.23;;;;;;;2.21;71.64;103871.31;5228708;28;20458;-75
2022/03/18 03:28:53;;;;;;;16.23;8.20;;;;;;;2.16;71.70;103874.63;5229677;28;20472;-75
2022/03/18 03:31:24;;;;;;;14.47;7.77;;;;;;;2.04;72.11;103876.94;5228129;28;20623;-75
2022/03/18 03:33:56;;;;;;;11.70;7.13;;;;;;;2.11;72.49;103876.25;5228268;28;20071;-75
2022/03/18 03:36:27;;;;;;;11.37;6.57;;;;;;;2.01;72.96;103885.47;5226837;28;20022;-75
2022/03/18 03:38:58;;;;;;;13.63;6.63;;;;;;;1.96;74.02;103876.72;5229079;28;20033;-75
2022/03/18 03:41:29;;;;;;;14.03;7.37;;;;;;;2.00;73.45;103883.75;5229081;28;20029;-75
2022/03/18 03:44:01;;;;;;;15.07;7.30;;;;;;;1.89;73.65;103875.69;5229542;28;20049;-75
2022/03/18 03:46:33;;;;;;;15.07;7.17;;;;;;;1.93;73.85;103890.47;5228963;28;20034;-75
2022/03/18 03:49:05;;;;;;;14.27;6.57;;;;;;;1.99;73.37;103892.31;5229080;28;20022;-75
2022/03/18 03:51:36;;;;;;;17.90;7.83;;;;;;;1.95;73.38;103893.09;5228330;28;20705;-75
2022/03/18 03:54:07;;;;;;;14.67;6.80;;;;;;;1.95;73.05;103897.38;5227802;28;20135;-75
2022/03/18 03:56:38;;;;;;;16.93;7.17;;;;;;;1.95;73.43;103910.31;5229740;28;20025;-75
2022/03/18 03:59:10;;;;;;;14.97;7.20;;;;;;;1.82;73.47;103889.28;5228554;28;20032;-74
2022/03/18 04:01:41;;;;;;;13.30;7.33;;;;;;;1.91;73.39;103899.00;5229624;28;20033;-75
2022/03/18 04:04:12;;;;;;;14.13;6.57;;;;;;;1.80;73.46;103894.44;5227287;28;20044;-75
2022/03/18 04:06:44;;;;;;;16.40;7.00;;;;;;;1.84;73.93;103918.66;5228442;28;20064;-75
2022/03/18 04:09:16;;;;;;;13.70;7.00;;;;;;;1.76;73.68;103920.16;5226643;28;20029;-74
2022/03/18 04:11:47;;;;;;;10.10;6.20;;;;;;;1.95;73.19;103924.13;5228431;28;20546;-74
2022/03/18 04:14:18;;;;;;;15.07;7.77;;;;;;;1.84;73.38;103921.22;5228725;28;20029;-74
2022/03/18 04:16:49;;;;;;;11.53;6.57;;;;;;;1.75;74.05;103923.56;5228390;28;20081;-74
2022/03/18 04:19:21;;;;;;;13.67;8.00;;;;;;;1.81;74.27;103932.38;5227569;28;20109;-74
2022/03/18 04:21:52;;;;;;;11.73;7.53;;;;;;;1.73;74.03;103935.59;5228460;28;20037;-74
2022/03/18 04:24:23;;;;;;;13.27;7.77;;;;;;;1.79;74.10;103930.56;5226855;28;20033;-74
2022/03/18 04:26:54;;;;;;;17.67;7.00;;;;;;;1.66;73.44;103935.41;5229319;28;20621;-74
2022/03/18 04:29:26;;;;;;;9.93;6.60;;;;;;;1.77;74.35;103942.56;5227091;28;20396;-74
2022/03/18 04:31:58;;;;;;;13.27;7.33;;;;;;;1.79;74.44;103940.91;5227601;28;20029;-75
2022/03/18 04:34:29;;;;;;;14.83;7.17;;;;;;;1.74;74.27;103935.63;5228469;28;20029;-75
2022/03/18 04:37:01;;;;;;;15.20;7.33;;;;;;;1.81;74.31;103947.88;5227828;28;20056;-75
2022/03/18 04:39:32;;;;;;;16.10;6.70;;;;;;;1.66;74.01;103961.22;5227445;28;20090;-74
2022/03/18 04:42:03;;;;;;;13.90;6.87;;;;;;;1.62;74.34;103964.59;5232546;28;20234;-74
2022/03/18 04:44:35;;;;;;;11.83;6.70;;;;;;;1.56;74.71;103957.53;5232739;28;20443;-74
2022/03/18 04:47:06;;;;;;;16.27;7.30;;;;;;;1.85;74.22;103956.56;5232293;28;20702;-74
2022/03/18 04:49:38;;;;;;;10.17;6.43;;;;;;;1.90;73.29;103948.97;5233050;28;20109;-74
2022/03/18 04:52:09;;;;;;;12.30;6.53;;;;;;;1.63;73.72;103945.66;5231650;28;20113;-75
2022/03/18 04:54:40;;;;;;;10.30;6.57;;;;;;;1.64;74.39;103936.19;5231075;28;20064;-74
2022/03/18 04:57:20;;;;;;;12.83;7.80;;;;;;;1.64;74.24;103959.44;5232499;28;20060;-74
2022/03/18 04:59:52;;;;;;;14.20;7.23;;;;;;;1.56;74.17;103962.69;5232334;28;20056;-74
2022/03/18 05:02:24;;;;;;;14.93;6.80;;;;;;;1.41;74.42;103964.81;5232361;28;20280;-74
2022/03/18 05:04:56;;;;;;;13.77;8.10;;;;;;;1.53;75.13;103967.78;5231655;28;20252;-74
2022/03/18 05:07:27;;;;;;;15.13;6.70;;;;;;;1.43;75.40;103964.03;5229928;28;20408;-75
2022/03/18 05:09:58;;;;;;;12.00;7.03;;;;;;;1.47;75.23;103979.63;5232313;28;20021;-78
2022/03/18 05:12:31;;;;;;;16.33;7.90;;;;;;;1.50;75.08;103974.56;5230672;28;20032;-75
2022/03/18 05:15:03;;;;;;;15.73;6.93;;;;;;;1.47;75.03;103983.06;5231079;28;20408;-75
2022/03/18 05:17:35;;;;;;;14.70;6.33;;;;;;;1.54;74.83;103992.75;5231322;28;20268;-75
2022/03/18 05:20:09;;;;;;;15.33;8.17;;;;;;;1.51;75.29;103989.22;5213878;28;20060;-75
2022/03/18 05:22:41;;;;;;;14.30;7.30;;;;;;;1.49;74.36;103993.44;5229748;28;20021;-74
2022/03/18 05:25:13;;;;;;;14.73;7.23;;;;;;;1.36;74.90;103995.69;5229860;28;20084;-74
2022/03/18 05:27:44;;;;;;;12.63;7.03;;;;;;;1.36;75.87;103993.13;5231917;28;20022;-74
2022/03/18 05:30:16;;;;;;;12.83;6.40;;;;;;;1.42;75.53;103994.97;5231278;28;20272;-74
2022/03/18 05:32:47;;;;;;;13.40;7.37;;;;;;;1.33;75.48;103995.56;5214261;28;20480;-74
2022/03/18 05:35:20;;;;;;;13.10;6.60;;;;;;;1.37;75.33;104009.47;5231318;28;20420;-74
2022/03/18 05:37:51;;;;;;;18.07;7.67;;;;;;;1.38;75.36;104006.91;5230907;28;20129;-74
2022/03/18 05:40:23;;;;;;;19.43;6.57;;;;;;;1.35;75.18;104006.84;5231516;28;20101;-74
2022/03/18 05:42:54;;;;;;;13.47;6.93;;;;;;;1.28;76.40;104007.47;5231307;28;20009;-74
2022/03/18 05:45:25;;;;;;;12.23;6.77;;;;;;;1.20;76.83;104002.94;5229415;28;20125;-74
2022/03/18 05:47:56;;;;;;;16.43;6.97;;;;;;;1.30;76.20;104003.22;5231759;28;20025;-74
2022/03/18 05:50:28;;;;;;;18.23;7.07;;;;;;;1.40;76.01;104002.69;5229439;28;20049;-74
2022/03/18 05:53:00;;;;;;;20.20;7.97;;;;;;;1.27;76.67;104011.78;5229023;28;20104;-74
2022/03/18 05:58:23;;;;;;;18.80;9.27;;;;;;;1.38;78.89;103994.00;5231068;28;20491;-75
2022/03/18 06:00:54;;;;;;;21.63;8.80;;;;;;;1.44;79.88;104001.97;5230958;28;20273;-75
2022/03/18 06:03:25;;;;;;;17.10;8.57;;;;;;;1.51;77.94;103991.78;5230841;28;20018;-77
2022/03/18 06:05:57;;;;;;;16.37;7.43;;;;;;;1.41;77.28;104022.53;5229995;28;20410;-76
2022/03/18 06:14:09;;;;;;;17.87;8.07;;;;;;;1.43;77.95;104020.84;5230820;28;20431;-74
2022/03/18 06:16:40;;;;;;;18.20;8.17;;;;;;;1.39;78.37;104036.22;5229189;28;20033;-77
2022/03/18 06:19:12;;;;;;;15.67;8.57;;;;;;;1.62;77.80;104039.50;5229223;28;20112;-77
2022/03/18 06:21:44;;;;;;;21.50;9.00;;;;;;;1.60;77.40;104048.91;5227623;28;20026;-77
2022/03/18 06:24:17;;;;;;;17.30;8.40;;;;;;;1.44;77.70;104052.75;5228561;28;20777;-77
2022/03/18 06:26:50;;;;;;;13.60;7.77;;;;;;;1.51;78.02;104058.97;5228238;28;20309;-77
2022/03/18 06:29:21;;;;;;;18.57;7.67;;;;;;;1.57;78.17;104061.75;5222185;28;20304;-79
2022/03/18 06:31:52;;;;;;;20.03;9.10;;;;;;;1.60;77.92;104059.25;5214781;28;20312;-76
2022/03/18 06:34:25;;;;;;;20.77;9.83;;;;;;;1.69;78.28;104064.69;5217785;28;20014;-76
2022/03/18 06:37:03;;;;;;;14.80;7.33;;;;;;;1.71;77.95;104056.97;5217982;28;20068;-76
2022/03/18 06:39:34;;;;;;;21.87;8.90;;;;;;;1.65;78.42;104042.19;5221982;28;20025;-77
2022/03/18 06:42:06;;;;;;;18.93;8.13;;;;;;;1.70;78.51;104039.72;5228206;28;20029;-78
2022/03/18 06:44:37;;;;;;;18.10;9.40;;;;;;;1.90;79.05;104065.28;5230329;28;20013;-78
2022/03/18 06:47:08;;;;;;;19.63;8.73;;;;;;;1.89;79.09;104067.00;5226570;28;20056;-76
2022/03/18 06:49:40;;;;;;;18.47;8.77;;;;;;;1.95;79.02;104068.88;5225309;28;20030;-76
2022/03/18 06:52:11;;;;;;;14.53;8.80;;;;;;;1.91;79.26;104075.66;5223811;28;20529;-76
2022/03/18 06:54:42;;;;;;;19.97;9.20;;;;;;;2.20;78.50;104086.81;5227327;28;20039;-76
2022/03/18 06:57:13;;;;;;;25.33;10.30;;;;;;;2.09;80.32;104084.78;5225156;28;20045;-76
2022/03/18 06:59:45;;;;;;;14.50;9.00;;;;;;;2.13;80.28;104078.84;5228087;28;20033;-74
2022/03/18 07:02:16;;;;;;;20.33;9.03;;;;;;;2.28;79.97;104080.13;5219577;28;20084;-74
2022/03/18 07:04:47;;;;;;;18.80;8.53;;;;;;;2.36;80.78;104088.09;5226989;28;20060;-76
2022/03/18 07:07:19;;;;;;;18.03;10.40;;;;;;;2.57;82.87;104081.75;5221628;28;20038;-73
2022/03/18 07:09:50;;;;;;;18.73;8.33;;;;;;;2.64;82.85;104083.66;5225738;28;20123;-75
2022/03/18 07:12:21;;;;;;;13.13;8.53;;;;;;;2.75;81.59;104091.72;5221234;28;20548;-74
2022/03/18 07:14:53;;;;;;;21.93;8.47;;;;;;;2.66;82.05;104072.53;5226846;28;20703;-75
2022/03/18 07:20:14;;;;;;;21.67;9.23;;;;;;;3.07;82.69;104093.38;5226348;28;20037;-75
2022/03/18 07:22:46;;;;;;;20.20;9.33;;;;;;;2.96;83.37;104043.91;5230435;28;20092;-74
2022/03/18 07:25:17;;;;;;;19.90;9.23;;;;;;;3.42;82.83;104102.81;5224435;28;20044;-74
2022/03/18 07:27:48;;;;;;;23.17;10.23;;;;;;;3.44;82.81;104083.00;5228508;28;20615;-75
2022/03/18 07:30:20;;;;;;;21.57;9.97;;;;;;;3.68;82.53;104107.72;5227439;28;20435;-75
2022/03/18 07:32:51;;;;;;;29.73;10.00;;;;;;;3.82;82.31;104101.09;5228530;28;20041;-75
2022/03/18 07:35:23;;;;;;;20.47;8.23;;;;;;;4.06;81.92;104109.38;5225127;28;20026;-75
2022/03/18 07:37:54;;;;;;;17.87;7.90;;;;;;;4.08;81.04;104099.91;5225251;28;20049;-75
2022/03/18 07:40:26;;;;;;;23.47;7.27;;;;;;;4.30;80.56;104100.34;5207476;28;20065;-75
2022/03/18 07:42:58;;;;;;;15.50;7.73;;;;;;;4.21;80.28;104073.38;5226812;28;20067;-75
2022/03/18 07:45:32;;;;;;;20.67;9.23;;;;;;;4.74;78.80;104133.19;5228722;28;20095;-75
2022/03/18 07:48:08;;;;;;;21.30;8.00;;;;;;;4.93;77.63;104141.28;5228260;28;20064;-75
2022/03/18 07:50:39;;;;;;;19.87;7.73;;;;;;;5.02;77.12;104130.19;5227154;28;20516;-75
2022/03/18 07:53:11;;;;;;;18.23;7.10;;;;;;;5.29;76.13;104147.06;5227722;28;20099;-75
2022/03/18 07:55:42;;;;;;;14.20;6.70;;;;;;;5.71;74.68;104152.91;5225869;28;20018;-75
2022/03/18 07:58:13;;;;;;;13.10;6.53;;;;;;;6.03;72.48;104149.88;5228035;28;20034;-75
2022/03/18 08:00:45;;;;;;;15.87;6.63;;;;;;;6.76;71.35;104136.81;5228185;28;20029;-75
2022/03/18 08:03:17;;;;;;;22.47;6.80;;;;;;;7.43;68.34;104130.41;5227428;28;21112;-75
2022/03/18 08:05:48;;;;;;;18.73;6.37;;;;;;;8.59;66.35;104164.00;5225481;28;20036;-75
2022/03/18 08:08:20;;;;;;;23.03;5.77;;;;;;;9.02;62.58;104133.56;5227039;28;20060;-72
2022/03/18 08:10:52;;;;;;;12.40;5.13;;;;;;;10.16;59.68;104166.44;5227601;28;20021;-72
2022/03/18 08:13:23;;;;;;;19.77;5.50;;;;;;;10.97;56.88;104165.09;5226525;28;20863;-74
2022/03/18 08:15:55;;;;;;;21.17;4.87;;;;;;;11.69;54.54;104164.44;5227327;28;20044;-74
2022/03/18 08:18:26;;;;;;;21.47;6.83;;;;;;;11.67;51.77;104134.69;5230850;28;20021;-74
2022/03/18 08:20:58;;;;;;;14.00;5.30;;;;;;;12.44;51.21;104167.00;5229943;28;20033;-74
2022/03/18 08:23:31;;;;;;;15.07;4.83;;;;;;;13.11;48.56;104172.97;5230996;28;20037;-74
2022/03/18 08:26:02;;;;;;;14.77;5.37;;;;;;;13.99;48.29;104185.41;5229668;28;20624;-74
2022/03/18 08:28:33;;;;;;;16.73;6.10;;;;;;;14.21;45.66;104132.22;5231182;28;20037;-74
2022/03/18 08:31:05;;;;;;;13.27;4.43;;;;;;;14.42;43.93;104144.97;5231416;28;20018;-74
2022/03/18 08:33:36;;;;;;;14.87;4.97;;;;;;;15.13;42.19;104184.59;5230952;28;20032;-74
2022/03/18 08:36:07;;;;;;;17.00;5.60;;;;;;;15.65;41.23;104194.66;5228404;28;20021;-74
2022/03/18 08:38:40;;;;;;;12.17;4.50;;;;;;;15.97;40.50;104184.94;5235367;28;20036;-74
2022/03/18 08:41:12;;;;;;;11.73;4.00;;;;;;;16.18;39.32;104201.09;5230101;28;20025;-74
2022/03/18 08:43:43;;;;;;;17.80;4.70;;;;;;;16.28;38.23;104200.81;5230006;28;20025;-74
2022/03/18 08:46:14;;;;;;;13.70;5.00;;;;;;;17.03;37.43;104209.03;5228511;28;20033;-74
2022/03/18 08:48:46;;;;;;;10.17;4.40;;;;;;;17.00;36.77;104180.03;5230827;28;20029;-74
2022/03/18 08:51:17;;;;;;;16.63;5.07;;;;;;;17.25;36.12;104155.34;5229936;28;20041;-74
2022/03/18 08:53:48;;;;;;;9.93;4.60;;;;;;;17.13;34.74;104212.25;5230568;28;20559;-73
2022/03/18 08:56:19;;;;;;;12.93;4.77;;;;;;;17.22;35.33;104204.00;5229003;28;20157;-73
2022/03/18 08:58:51;;;;;;;14.73;5.00;;;;;;;18.34;34.56;104230.91;5229177;28;20091;-73
2022/03/18 09:01:23;;;;;;;9.93;4.47;;;;;;;18.03;33.66;104229.38;5230925;28;20030;-74
2022/03/18 09:03:54;;;;;;;10.27;3.83;;;;;;;19.38;31.65;104234.66;5230814;28;20484;-74
2022/03/18 09:06:26;;;;;;;7.90;3.72;;;;;;;20.14;31.39;104241.91;5225794;28;20033;-74
2022/03/18 09:09:02;;;;;;;8.85;3.75;;;;;;;20.22;29.45;104230.03;5229390;28;20030;-76
2022/03/18 09:11:33;;;;;;;9.43;3.80;;;;;;;20.30;29.70;104235.84;5230233;28;20116;-75
2022/03/18 09:14:05;;;;;;;10.07;3.67;;;;;;;20.99;28.28;104205.91;5229791;28;20488;-75
2022/03/18 09:16:38;;;;;;;7.72;3.20;;;;;;;20.97;27.46;104243.31;5227531;28;20026;-75
2022/03/18 09:19:09;;;;;;;6.35;2.47;;;;;;;21.20;26.68;104246.59;5231387;28;20047;-77
2022/03/18 09:21:40;;;;;;;10.02;3.30;;;;;;;20.92;27.54;104253.28;5229762;28;20065;-75
2022/03/18 09:24:12;;;;;;;6.93;3.80;;;;;;;21.88;26.81;104239.50;5229402;28;20041;-76
2022/03/18 09:26:43;;;;;;;8.05;2.88;;;;;;;21.98;26.00;104254.97;5229778;28;20057;-74
2022/03/18 09:29:14;;;;;;;11.55;4.03;;;;;;;22.14;25.68;104230.09;5215019;28;20103;-72
2022/03/18 09:31:45;;;;;;;8.27;3.38;;;;;;;22.76;26.35;104252.47;5231276;28;20029;-70
2022/03/18 09:34:17;;;;;;;8.80;3.50;;;;;;;22.52;25.97;104245.75;5229687;28;20376;-70
2022/03/18 09:36:49;;;;;;;9.63;3.45;;;;;;;22.94;24.84;104262.06;5226119;28;20025;-70
2022/03/18 09:39:21;;;;;;;8.57;3.22;;;;;;;23.88;24.57;104259.09;5230634;28;20013;-70
2022/03/18 09:41:53;;;;;;;7.18;2.70;;;;;;;23.36;24.49;104258.69;5232072;28;20504;-70
2022/03/18 09:44:36;;;;;;;10.32;2.92;;;;;;;24.21;24.85;104253.53;5237940;28;20680;-70
2022/03/18 09:47:09;;;;;;;8.95;3.25;;;;;;;23.51;23.77;104259.59;5248541;28;20031;-71
2022/03/18 09:49:45;;;;;;;8.90;2.90;;;;;;;24.49;23.91;104265.13;5251189;28;20111;-71
2022/03/18 09:52:18;;;;;;;10.95;3.67;;;;;;;24.36;23.48;104254.34;5252143;28;20502;-70
2022/03/18 09:54:49;;;;;;;6.30;3.27;;;;;;;24.63;22.54;104256.13;5238813;28;20523;-71
2022/03/18 09:57:21;;;;;;;10.10;3.22;;;;;;;23.79;22.36;104246.31;5230149;28;20033;-71
2022/03/18 09:59:52;;;;;;;7.15;3.53;;;;;;;25.44;22.74;104266.78;5231839;28;20529;-71
2022/03/18 10:02:29;;;;;;;7.35;3.00;;;;;;;25.58;22.13;104248.84;5233655;28;20051;-71
2022/03/18 10:05:07;;;;;;;8.23;2.90;;;;;;;25.52;21.53;104282.31;5234822;28;20034;-72
2022/03/18 10:07:39;;;;;;;7.20;2.50;;;;;;;24.98;21.98;104276.19;5230479;28;20072;-71
2022/03/18 10:10:15;;;;;;;5.32;2.90;;;;;;;25.47;20.78;104279.97;5230600;28;20100;-71
2022/03/18 10:12:52;;;;;;;8.00;2.92;;;;;;;25.49;20.78;104282.53;5230381;28;20069;-72
2022/03/18 10:15:28;;;;;;;5.28;2.47;;;;;;;25.18;21.27;104279.31;5225581;28;20193;-71
2022/03/18 10:18:01;;;;;;;8.52;2.83;;;;;;;25.24;21.05;104290.47;5232222;28;20419;-73
2022/03/18 10:20:33;;;;;;;11.52;2.60;;;;;;;25.22;20.94;104287.03;5229510;28;20034;-72
2022/03/18 10:23:17;;;;;;;7.87;2.80;;;;;;;26.29;22.40;104280.44;5230334;28;20028;-72
2022/03/18 10:25:52;;;;;;;6.68;2.45;;;;;;;26.32;20.38;104288.28;5226154;28;20761;-72
2022/03/18 10:28:32;;;;;;;8.73;2.55;;;;;;;26.19;21.40;104282.09;5230631;28;20025;-72
2022/03/18 10:31:15;;;;;;;7.20;2.78;;;;;;;26.05;21.16;104275.06;5234289;28;20025;-73
2022/03/18 10:37:04;;;;;;;6.82;2.40;;;;;;;24.08;21.45;104270.38;5227234;28;20037;-73
2022/03/18 10:39:36;;;;;;;4.78;2.13;;;;;;;23.50;22.76;104270.38;5229817;28;20032;-72
2022/03/18 10:42:12;;;;;;;8.18;2.60;;;;;;;22.73;23.93;104253.50;5229748;28;20017;-73
2022/03/18 10:44:58;;;;;;;5.82;2.60;;;;;;;21.53;24.38;104220.88;5228859;28;20036;-73
2022/03/18 10:47:35;;;;;;;6.90;2.13;;;;;;;22.34;23.84;104269.03;5232151;28;20057;-73
2022/03/18 10:50:09;;;;;;;7.28;2.65;;;;;;;21.90;24.52;104276.75;5249721;28;20483;-73
2022/03/18 10:53:01;;;;;;;8.23;2.47;;;;;;;22.10;25.23;104262.31;5251174;28;20128;-73
2022/03/18 10:55:41;;;;;;;8.85;2.45;;;;;;;21.85;25.49;104262.81;5234876;28;20088;-73
2022/03/18 10:58:16;;;;;;;7.95;2.88;;;;;;;21.46;25.55;104273.69;5228395;28;20533;-73
2022/03/18 11:00:50;;;;;;;6.70;2.33;;;;;;;20.70;25.66;104267.66;5230227;28;20258;-73
2022/03/18 11:03:22;;;;;;;;;;;;;;;22.14;24.87;104265.66;5242603;28;20063;-73
2022/03/18 11:05:54;;;;;;;10.57;3.08;;;;;;;19.33;26.71;104269.41;5233625;28;19952;-73
2022/03/18 11:08:45;;;;;;;6.03;2.50;;;;;;;19.48;27.21;104238.66;5229248;28;20064;-73
2022/03/18 11:11:20;;;;;;;6.63;2.58;;;;;;;18.79;27.95;104246.81;5229288;28;20091;-74
2022/03/18 11:14:00;;;;;;;7.30;2.20;;;;;;;18.92;28.58;104260.44;5230470;28;20030;-74
2022/03/18 11:16:38;;;;;;;8.80;2.60;;;;;;;18.43;29.11;104218.19;5230598;28;20124;-73
2022/03/18 11:19:10;;;;;;;9.90;2.87;;;;;;;18.55;28.86;104232.75;5227727;28;20040;-73
2022/03/18 11:21:42;;;;;;;7.37;2.23;;;;;;;19.26;28.23;104250.22;5228697;28;20018;-72
2022/03/18 11:24:20;;;;;;;8.30;2.47;;;;;;;18.89;28.34;104230.50;5228524;28;20023;-73
2022/03/18 11:26:53;;;;;;;5.07;2.37;;;;;;;18.58;29.72;104244.13;5245306;28;20024;-73
2022/03/18 11:29:26;;;;;;;5.80;2.80;;;;;;;18.55;29.70;104249.56;5250074;28;20890;-73
2022/03/18 11:32:16;;;;;;;7.50;2.80;;;;;;;18.69;29.68;104241.03;5265213;28;20483;-73
2022/03/18 11:34:59;;;;;;;11.53;2.97;;;;;;;18.29;29.67;104224.03;5207280;28;20040;-73
2022/03/18 11:37:31;;;;;;;8.93;3.20;;;;;;;18.25;29.71;104252.47;5229197;28;20542;-73
2022/03/18 11:40:23;;;;;;;10.83;3.20;;;;;;;18.78;29.80;104250.38;5227869;28;20025;-73
2022/03/18 11:42:55;;;;;;;6.73;2.83;;;;;;;18.67;29.89;104242.88;5229500;28;20053;-71
2022/03/18 11:45:34;;;;;;;8.50;3.13;;;;;;;18.18;30.94;104235.94;5224844;28;20063;-71
2022/03/18 11:48:34;;;;;;;5.70;2.40;;;;;;;18.67;30.65;104248.19;5227260;28;20049;-71
2022/03/18 11:51:28;;;;;;;7.10;2.67;;;;;;;18.74;30.51;104254.09;5225688;28;20045;-71
2022/03/18 11:54:13;;;;;;;7.70;3.03;;;;;;;18.12;30.56;104234.34;5226375;28;20059;-70
2022/03/18 11:56:52;;;;;;;10.57;2.88;;;;;;;18.22;31.28;104236.69;5224171;28;20029;-71
2022/03/18 11:59:29;;;;;;;9.43;3.20;;;;;;;18.11;31.23;104256.50;5227158;28;20036;-71
2022/03/18 12:02:05;;;;;;;7.63;2.50;;;;;;;18.23;30.64;104249.00;5227962;28;20030;-72
2022/03/18 12:04:38;;;;;;;7.30;3.17;;;;;;;17.62;31.57;104238.81;5246987;28;20108;-71
2022/03/18 12:07:34;;;;;;;8.25;3.63;;;;;;;18.02;31.70;104246.22;5226038;28;20144;-71
2022/03/18 12:10:07;;;;;;;10.50;3.30;;;;;;;17.75;31.88;104225.97;5229136;28;20534;-72
2022/03/18 12:12:40;;;;;;;6.10;3.67;;;;;;;17.58;32.40;104210.69;5228166;28;20041;-72